createdAt,value
2018-12-26T00:02:26.390Z,13.97
2018-12-26T00:04:59.555Z,14.30
2018-12-26T00:07:34.356Z,18.03
2018-12-26T00:10:07.912Z,28.77
2018-12-26T00:12:43.540Z,20.03
2018-12-26T00:15:17.057Z,21.90
2018-12-26T00:17:50.528Z,24.17
2018-12-26T00:20:24.564Z,22.80
2018-12-26T00:22:58.012Z,21.20
2018-12-26T00:25:32.505Z,21.67
2018-12-26T00:28:05.956Z,20.80
2018-12-26T00:30:39.322Z,20.50
2018-12-26T00:33:12.769Z,21.47
2018-12-26T00:35:45.961Z,25.60
2018-12-26T00:38:19.541Z,22.10
2018-12-26T00:40:52.736Z,23.77
2018-12-26T00:43:26.051Z,27.07
2018-12-26T00:45:59.298Z,28.27
2018-12-26T00:48:32.739Z,32.70
2018-12-26T00:51:06.056Z,31.43
2018-12-26T00:53:39.609Z,27.13
2018-12-26T00:56:13.076Z,26.37
2018-12-26T00:58:46.544Z,27.93
2018-12-26T01:01:19.888Z,32.07
2018-12-26T01:03:53.422Z,32.60
2018-12-26T01:06:26.947Z,31.23
2018-12-26T01:09:02.353Z,35.83
2018-12-26T01:11:36.442Z,27.70
2018-12-26T01:14:10.171Z,30.63
2018-12-26T01:16:43.461Z,32.93
2018-12-26T01:19:17.121Z,30.63
2018-12-26T01:21:50.632Z,35.07
2018-12-26T01:24:24.224Z,40.00
2018-12-26T01:26:57.475Z,39.13
2018-12-26T01:29:31.519Z,32.73
2018-12-26T01:32:06.987Z,32.77
2018-12-26T01:34:48.327Z,36.93
2018-12-26T01:37:21.609Z,42.90
2018-12-26T01:39:56.672Z,51.07
2018-12-26T01:42:29.613Z,41.83
2018-12-26T01:45:02.924Z,58.93
2018-12-26T01:47:38.327Z,73.00
2018-12-26T01:50:11.940Z,109.22
2018-12-26T01:52:46.084Z,91.87
2018-12-26T01:55:19.535Z,107.80
2018-12-26T01:57:52.762Z,107.37
2018-12-26T02:00:26.180Z,107.00
2018-12-26T02:02:59.465Z,124.83
2018-12-26T02:05:34.119Z,146.77
2018-12-26T02:08:07.502Z,115.77
2018-12-26T02:10:40.979Z,137.57
2018-12-26T02:13:14.356Z,172.67
2018-12-26T02:15:49.283Z,139.60
2018-12-26T02:18:22.702Z,121.10
2018-12-26T02:20:56.617Z,92.57
2018-12-26T02:23:29.877Z,89.70
2018-12-26T02:26:03.533Z,82.93
2018-12-26T02:28:36.920Z,57.07
2018-12-26T02:31:12.387Z,77.03
2018-12-26T02:33:45.773Z,59.63
2018-12-26T02:36:19.350Z,76.03
2018-12-26T02:38:52.693Z,78.10
2018-12-26T02:41:26.012Z,71.70
2018-12-26T02:43:59.295Z,83.50
2018-12-26T02:46:32.569Z,75.10
2018-12-26T02:49:05.796Z,93.37
2018-12-26T02:51:39.173Z,80.50
2018-12-26T02:54:12.485Z,94.67
2018-12-26T02:56:48.682Z,88.47
2018-12-26T02:59:20.555Z,55.20
2018-12-26T03:01:53.987Z,50.07
2018-12-26T03:04:27.447Z,69.30
2018-12-26T03:07:00.957Z,76.60
2018-12-26T03:09:34.329Z,90.00
2018-12-26T03:12:08.007Z,57.23
2018-12-26T03:14:41.257Z,56.97
2018-12-26T03:17:15.136Z,59.90
2018-12-26T03:19:48.560Z,60.63
2018-12-26T03:22:22.025Z,62.63
2018-12-26T03:24:55.445Z,65.10
2018-12-26T03:27:28.955Z,71.47
2018-12-26T03:30:02.369Z,78.17
2018-12-26T03:32:35.713Z,52.13
2018-12-26T03:35:09.005Z,53.47
2018-12-26T03:37:42.346Z,39.47
2018-12-26T03:40:15.687Z,39.10
2018-12-26T03:42:49.589Z,47.40
2018-12-26T03:45:23.197Z,45.33
2018-12-26T03:47:57.931Z,36.00
2018-12-26T03:50:31.184Z,36.47
2018-12-26T03:53:04.929Z,33.17
2018-12-26T03:55:38.874Z,27.00
2018-12-26T03:58:12.361Z,29.70
2018-12-26T04:00:46.904Z,26.13
2018-12-26T04:03:20.500Z,27.70
2018-12-26T04:05:53.889Z,23.03
2018-12-26T04:08:27.357Z,26.23
2018-12-26T04:11:00.584Z,22.57
2018-12-26T04:13:33.899Z,18.40
2018-12-26T04:16:07.585Z,23.17
2018-12-26T04:18:41.076Z,23.03
2018-12-26T04:21:14.519Z,14.30
2018-12-26T04:23:48.811Z,16.67
2018-12-26T04:26:21.995Z,18.77
2018-12-26T04:28:55.226Z,17.67
2018-12-26T04:31:28.548Z,14.63
2018-12-26T04:34:01.814Z,16.27
2018-12-26T04:36:35.183Z,15.63
2018-12-26T04:39:09.737Z,14.13
2018-12-26T04:41:43.056Z,16.90
2018-12-26T04:44:16.342Z,15.47
2018-12-26T04:46:49.656Z,16.67
2018-12-26T04:49:23.956Z,17.20
2018-12-26T04:51:57.229Z,19.37
2018-12-26T04:54:30.565Z,28.37
2018-12-26T04:57:03.801Z,28.60
2018-12-26T04:59:37.735Z,29.27
2018-12-26T05:02:10.966Z,30.13
2018-12-26T05:04:44.259Z,34.27
2018-12-26T05:07:17.615Z,33.23
2018-12-26T05:09:50.964Z,29.37
2018-12-26T05:12:24.439Z,25.43
2018-12-26T05:14:57.788Z,26.13
2018-12-26T05:17:31.317Z,24.63
2018-12-26T05:20:04.754Z,17.15
2018-12-26T05:22:38.103Z,14.13
2018-12-26T05:25:11.362Z,13.60
2018-12-26T05:27:44.587Z,13.37
2018-12-26T05:30:18.009Z,12.47
2018-12-26T05:32:51.365Z,11.27
2018-12-26T05:35:24.830Z,13.37
2018-12-26T05:37:58.224Z,12.67
2018-12-26T05:40:31.688Z,11.27
2018-12-26T05:43:05.036Z,14.47
2018-12-26T05:45:38.470Z,12.03
2018-12-26T05:48:13.475Z,11.13
2018-12-26T05:50:47.014Z,12.47
2018-12-26T05:53:20.298Z,17.37
2018-12-26T05:55:53.561Z,24.63
2018-12-26T05:58:27.001Z,22.93
2018-12-26T06:01:00.293Z,26.13
2018-12-26T06:03:33.500Z,21.07
2018-12-26T06:06:06.755Z,21.40
2018-12-26T06:08:41.114Z,25.23
2018-12-26T06:11:14.471Z,28.67
2018-12-26T06:13:47.915Z,31.17
2018-12-26T06:16:21.182Z,25.37
2018-12-26T06:18:55.025Z,20.30
2018-12-26T06:21:28.445Z,19.07
2018-12-26T06:24:01.841Z,20.53
2018-12-26T06:26:35.150Z,21.68
2018-12-26T06:29:08.361Z,20.20
2018-12-26T06:31:41.673Z,23.83
2018-12-26T06:34:14.934Z,26.27
2018-12-26T06:36:48.215Z,24.13
2018-12-26T06:39:21.423Z,25.27
2018-12-26T06:41:58.510Z,24.73
2018-12-26T06:44:35.612Z,25.20
2018-12-26T06:47:08.975Z,23.30
2018-12-26T06:49:45.262Z,20.30
2018-12-26T06:52:17.935Z,24.03
2018-12-26T06:54:53.340Z,19.37
2018-12-26T06:57:26.801Z,20.40
2018-12-26T07:00:00.286Z,18.30
2018-12-26T07:02:33.687Z,24.13
2018-12-26T07:05:07.139Z,22.53
2018-12-26T07:07:41.551Z,24.00
2018-12-26T07:10:15.472Z,24.00
2018-12-26T07:12:48.978Z,28.20
2018-12-26T07:15:22.275Z,24.33
2018-12-26T07:17:55.583Z,23.97
2018-12-26T07:20:29.263Z,26.97
2018-12-26T07:23:02.698Z,27.80
2018-12-26T07:25:35.907Z,31.20
2018-12-26T07:28:09.547Z,26.87
2018-12-26T07:30:43.865Z,23.13
2018-12-26T07:33:18.341Z,26.47
2018-12-26T07:35:51.659Z,23.23
2018-12-26T07:38:25.058Z,26.40
2018-12-26T07:40:58.249Z,21.83
2018-12-26T07:43:31.525Z,20.60
2018-12-26T07:46:04.752Z,22.07
2018-12-26T07:48:38.020Z,20.13
2018-12-26T07:51:11.869Z,21.03
2018-12-26T07:53:46.225Z,24.93
2018-12-26T07:56:20.566Z,25.20
2018-12-26T07:58:53.864Z,25.23
2018-12-26T08:01:27.107Z,26.93
2018-12-26T08:04:00.555Z,23.80
2018-12-26T08:06:33.938Z,24.50
2018-12-26T08:09:10.394Z,23.73
2018-12-26T08:11:46.055Z,22.33
2018-12-26T08:14:21.487Z,24.20
2018-12-26T08:16:59.324Z,25.30
2018-12-26T08:19:33.293Z,18.77
2018-12-26T08:22:07.056Z,17.90
2018-12-26T08:24:40.637Z,15.10
2018-12-26T08:27:13.988Z,12.73
2018-12-26T08:29:47.152Z,15.83
2018-12-26T08:32:20.488Z,14.57
2018-12-26T08:34:53.907Z,16.73
2018-12-26T08:37:27.145Z,15.07
2018-12-26T08:40:00.608Z,13.63
2018-12-26T08:42:33.990Z,14.20
2018-12-26T08:45:07.578Z,15.03
2018-12-26T08:47:40.964Z,10.40
2018-12-26T08:50:14.274Z,13.80
2018-12-26T08:52:47.577Z,8.27
2018-12-26T08:55:21.104Z,9.07
2018-12-26T08:57:54.336Z,12.33
2018-12-26T09:00:28.277Z,9.30
2018-12-26T09:03:05.413Z,10.37
2018-12-26T09:05:39.840Z,8.30
2018-12-26T09:08:13.013Z,11.67
2018-12-26T09:10:46.960Z,11.50
2018-12-26T09:13:22.542Z,12.17
2018-12-26T09:15:55.984Z,11.03
2018-12-26T09:18:30.891Z,11.00
2018-12-26T09:21:05.324Z,10.77
2018-12-26T09:23:39.143Z,10.27
2018-12-26T09:26:14.996Z,13.27
2018-12-26T09:28:48.648Z,13.20
2018-12-26T09:31:22.025Z,12.83
2018-12-26T09:33:55.254Z,12.13
2018-12-26T09:36:28.710Z,12.87
2018-12-26T09:39:02.069Z,14.80
2018-12-26T09:41:35.528Z,17.23
2018-12-26T09:44:08.877Z,18.97
2018-12-26T09:46:42.324Z,20.30
2018-12-26T09:49:15.761Z,19.87
2018-12-26T09:51:49.234Z,25.37
2018-12-26T09:54:22.659Z,25.47
2018-12-26T09:56:56.083Z,22.17
2018-12-26T09:59:29.461Z,22.43
2018-12-26T10:02:03.996Z,22.13
2018-12-26T10:04:37.281Z,28.50
2018-12-26T10:07:11.237Z,22.50
2018-12-26T10:09:44.679Z,25.10
2018-12-26T10:12:18.051Z,30.93
2018-12-26T10:14:51.516Z,24.83
2018-12-26T10:17:24.866Z,25.70
2018-12-26T10:19:58.224Z,29.50
2018-12-26T10:22:32.537Z,29.40
2018-12-26T10:25:06.208Z,39.30
2018-12-26T10:27:39.658Z,27.37
2018-12-26T10:30:13.100Z,26.23
2018-12-26T10:32:46.420Z,23.60
2018-12-26T10:35:19.812Z,23.10
2018-12-26T10:37:53.301Z,20.97
2018-12-26T10:40:26.674Z,20.20
2018-12-26T10:43:00.115Z,21.73
2018-12-26T10:45:33.456Z,22.77
2018-12-26T10:48:06.764Z,24.70
2018-12-26T10:50:39.952Z,21.30
2018-12-26T10:53:13.265Z,19.97
2018-12-26T10:55:47.251Z,19.87
2018-12-26T10:58:21.739Z,21.27
2018-12-26T11:00:54.945Z,16.87
2018-12-26T11:03:28.224Z,21.53
2018-12-26T11:06:01.500Z,21.57
2018-12-26T11:08:34.765Z,21.20
2018-12-26T11:11:08.111Z,26.33
2018-12-26T11:13:41.366Z,24.50
2018-12-26T11:16:15.250Z,22.40
2018-12-26T11:18:48.603Z,25.37
2018-12-26T11:21:22.096Z,31.30
2018-12-26T11:23:55.502Z,19.73
2018-12-26T11:26:28.786Z,38.57
2018-12-26T11:29:02.118Z,22.97
2018-12-26T11:31:35.958Z,18.40
2018-12-26T11:34:10.383Z,18.00
2018-12-26T11:36:43.834Z,19.93
2018-12-26T11:39:17.368Z,20.63
2018-12-26T11:41:50.584Z,17.90
2018-12-26T11:44:23.883Z,13.53
2018-12-26T11:46:57.084Z,19.13
2018-12-26T11:49:31.420Z,12.73
2018-12-26T11:52:07.124Z,16.83
2018-12-26T11:54:40.482Z,20.57
2018-12-26T11:57:13.760Z,13.93
2018-12-26T11:59:47.194Z,14.00
2018-12-26T12:02:23.729Z,17.73
2018-12-26T12:04:57.218Z,14.30
2018-12-26T12:07:30.535Z,25.00
2018-12-26T12:10:04.445Z,19.27
2018-12-26T12:12:37.940Z,20.63
2018-12-26T12:15:11.663Z,20.80
2018-12-26T12:17:45.038Z,16.20
2018-12-26T12:20:18.637Z,16.80
2018-12-26T12:22:51.995Z,20.00
2018-12-26T12:25:29.820Z,20.87
2018-12-26T12:28:03.353Z,17.60
2018-12-26T12:30:36.978Z,20.83
2018-12-26T12:33:10.321Z,21.07
2018-12-26T12:35:43.644Z,20.10
2018-12-26T12:38:17.172Z,25.83
2018-12-26T12:40:50.483Z,21.03
2018-12-26T12:43:24.046Z,19.45
2018-12-26T12:45:57.555Z,21.13
2018-12-26T12:48:33.432Z,26.90
2018-12-26T12:51:07.486Z,26.97
2018-12-26T12:53:40.809Z,28.20
2018-12-26T12:56:14.407Z,28.83
2018-12-26T12:58:47.778Z,23.17
2018-12-26T13:01:21.405Z,69.70
2018-12-26T13:03:54.785Z,21.20
2018-12-26T13:06:28.481Z,25.57
2018-12-26T13:09:01.880Z,20.87
2018-12-26T13:11:35.338Z,19.97
2018-12-26T13:14:08.741Z,20.93
2018-12-26T13:16:42.248Z,20.83
2018-12-26T13:19:15.607Z,24.13
2018-12-26T13:21:48.908Z,22.13
2018-12-26T13:24:23.415Z,20.60
2018-12-26T13:26:56.992Z,23.63
2018-12-26T13:29:30.300Z,27.50
2018-12-26T13:32:03.876Z,24.40
2018-12-26T13:34:39.741Z,32.90
2018-12-26T13:37:13.215Z,23.33
2018-12-26T13:39:50.939Z,26.10
2018-12-26T13:42:28.002Z,27.40
2018-12-26T13:45:10.073Z,23.27
2018-12-26T13:47:51.152Z,24.20
2018-12-26T13:50:25.432Z,21.73
2018-12-26T13:52:59.149Z,16.57
2018-12-26T13:55:32.727Z,19.43
2018-12-26T14:36:46.306Z,15.08
2018-12-26T14:59:11.520Z,21.60
2018-12-26T18:46:46.398Z,9.23
2018-12-26T19:15:37.878Z,4.03
2018-12-26T19:35:50.139Z,10.03
2018-12-26T22:16:30.193Z,18.33
2018-12-26T22:19:19.334Z,13.30
2018-12-26T22:39:48.525Z,12.90
2018-12-26T22:42:31.787Z,9.03
2018-12-26T23:15:36.790Z,14.97
2018-12-26T23:18:23.195Z,15.50
2018-12-26T23:27:09.636Z,17.80
2018-12-26T23:32:46.766Z,17.77
2018-12-26T23:35:24.194Z,11.67
2018-12-26T23:41:23.471Z,15.83
2018-12-26T23:46:55.402Z,14.33
2018-12-26T23:52:56.824Z,16.37
2018-12-26T23:58:41.639Z,12.53
